Historique des stations

Station météo de Véretz

Altitude de la station : 70 m







Données météorologiques pour le 28/11/2021
Date
Heure
Températures Humidité Point de rosée Vitesse
du vent
Direction Rafales Windchill Pression Pluviométrie
Cumul
Date
Heure
Températures Humidité Point de rosée Vitesse
du vent
Direction Rafales Windchill Pression Pluviométrie
Cumul
28/11/2021 21:150.7 °C77 %-2.8 °C-NNO35 km/h0.6 1007 hPa-
28/11/2021 21:020.6 °C78 %-2.8 °C---0.6 1007 hPa-
28/11/2021 21:000.6 °C78 %-2.8 °C-ONO35 km/h0.6 1007 hPa-
28/11/2021 20:461.0 °C76 %-2.8 °C---1.1 1007 hPa-
28/11/2021 20:441.1 °C76 %-2.8 °C-NO35 km/h1.1 1007 hPa-
28/11/2021 20:311.4 °C75 %-2.8 °C---1.7 1007 hPa-
28/11/2021 20:291.4 °C75 %-2.8 °C-ONO35 km/h1.7 1007 hPa-
28/11/2021 20:171.7 °C75 %-2.2 °C-NNO2 km/h1.7 1007 hPa-
28/11/2021 20:151.7 °C75 %-2.2 °C-NO35 km/h1.7 1007 hPa-
28/11/2021 20:021.8 °C76 %-2.2 °C---1.7 1007 hPa-
28/11/2021 20:001.8 °C76 %-2.2 °C-NO35 km/h1.7 1007 hPa-
28/11/2021 19:471.9 °C77 %-1.7 °C---1.7 1007 hPa-
28/11/2021 19:451.9 °C78 %-1.7 °C-NO35 km/h1.7 1007 hPa-
28/11/2021 19:311.6 °C81 %-1.1 °C---1.7 1007 hPa-
28/11/2021 19:291.6 °C81 %-1.1 °C-NO35 km/h1.7 1007 hPa-
28/11/2021 19:171.4 °C84 %-1.1 °C---1.7 1007 hPa-
28/11/2021 19:151.4 °C84 %-1.1 °C-NO35 km/h1.7 1007 hPa-
28/11/2021 19:011.3 °C86 %-0.6 °C---1.1 1007 hPa-
28/11/2021 18:591.4 °C86 %-0.6 °C-NO35 km/h1.7 1007 hPa-
28/11/2021 18:471.7 °C85 %-0.6 °C---1.7 1007 hPa-
28/11/2021 18:451.7 °C85 %-0.6 °C-NNO35 km/h1.7 1007 hPa-
28/11/2021 18:321.9 °C86 %0.0 °C---1.7 1007 hPa-
28/11/2021 18:301.8 °C86 %0.0 °C-NNO35 km/h1.7 1007 hPa-
28/11/2021 18:161.7 °C85 %-0.6 °C---1.7 1006 hPa-
28/11/2021 18:131.8 °C85 %-0.6 °C-N35 km/h1.7 1006 hPa-
28/11/2021 18:011.7 °C84 %-0.6 °C---1.7 1006 hPa-
28/11/2021 18:001.7 °C84 %-0.6 °C-N35 km/h1.7 1006 hPa-
28/11/2021 17:462.3 °C83 %-0.6 °C---2.2 1006 hPa-
28/11/2021 17:432.3 °C83 %0.0 °C-N35 km/h2.2 1006 hPa-
28/11/2021 17:312.8 °C82 %0.0 °C---2.8 1006 hPa-
28/11/2021 17:292.8 °C82 %0.0 °C-NNE35 km/h2.8 1006 hPa-
28/11/2021 17:162.9 °C83 %0.6 °C---2.8 1006 hPa-
28/11/2021 17:142.9 °C83 %0.6 °C-ONO35 km/h2.8 1006 hPa-
28/11/2021 17:013.0 °C82 %0.0 °C-NNE3 km/h2.8 1006 hPa-
28/11/2021 17:003.0 °C82 %0.0 °C-NO35 km/h2.8 1006 hPa-
28/11/2021 16:462.6 °C83 %0.0 °C-NE18 km/h2.8 1006 hPa-
28/11/2021 16:442.4 °C82 %-0.6 °C-NNO35 km/h2.2 1006 hPa-
28/11/2021 16:313.0 °C80 %0.0 °C-NNE32 km/h1.1 1006 hPa-
28/11/2021 16:293.2 °C80 %0.0 °C8 km/hN35 km/h1.7 1006 hPa-
28/11/2021 16:164.0 °C77 %0.6 °C2 km/hNO35 km/h1.1 1006 hPa-
28/11/2021 16:144.1 °C77 %0.6 °C3 km/hN35 km/h1.7 1006 hPa-
28/11/2021 16:015.0 °C72 %0.6 °C-N32 km/h4.4 1006 hPa-
28/11/2021 15:595.2 °C71 %0.6 °C-NE35 km/h4.4 1005 hPa-
28/11/2021 15:476.0 °C68 %0.6 °C3 km/hNNO31 km/h5.6 1005 hPa-
28/11/2021 15:456.1 °C67 %0.6 °C-NNO35 km/h5.0 1005 hPa-
28/11/2021 15:326.1 °C71 %1.1 °C-NNO24 km/h6.1 1005 hPa-
28/11/2021 15:305.9 °C71 %1.1 °C-NNO35 km/h6.1 1005 hPa-
28/11/2021 15:165.6 °C73 %1.1 °C-NNE21 km/h5.6 1005 hPa-
28/11/2021 15:145.6 °C73 %1.1 °C10 km/hN35 km/h5.6 1005 hPa-
28/11/2021 15:026.1 °C70 %1.1 °C3 km/hNO23 km/h5.6 1005 hPa-
28/11/2021 14:596.1 °C71 %1.1 °C-N35 km/h6.1 1005 hPa-
28/11/2021 14:476.1 °C72 %1.1 °C5 km/hNNO24 km/h5.6 1005 hPa-
28/11/2021 14:456.2 °C72 %1.7 °C10 km/hNNO35 km/h6.1 1005 hPa-
28/11/2021 14:325.8 °C73 %1.1 °C-NNO24 km/h5.6 1005 hPa-
28/11/2021 14:305.8 °C74 %1.7 °C3 km/hNO35 km/h5.6 1005 hPa-
28/11/2021 14:165.6 °C75 %1.7 °C-ONO16 km/h5.6 1005 hPa-
28/11/2021 14:145.6 °C75 %1.7 °C-NNO35 km/h5.6 1005 hPa-
28/11/2021 14:015.6 °C76 %1.7 °C-NNO10 km/h5.6 1005 hPa-
28/11/2021 13:595.6 °C75 %1.7 °C-NNO35 km/h5.6 1005 hPa-
28/11/2021 13:475.6 °C76 %1.7 °C-NNE21 km/h5.6 1005 hPa-
28/11/2021 13:455.6 °C76 %1.7 °C3 km/hNNO35 km/h5.6 1005 hPa-
28/11/2021 13:325.6 °C75 %1.7 °C-NNO14 km/h5.6 1005 hPa-
28/11/2021 13:305.6 °C76 %1.7 °C6 km/hNO35 km/h5.6 1005 hPa-
28/11/2021 13:165.7 °C76 %1.7 °C-NNE6 km/h5.6 1005 hPa-
28/11/2021 13:145.7 °C76 %1.7 °C-NNO35 km/h5.6 1005 hPa-
28/11/2021 13:016.0 °C76 %2.2 °C-N16 km/h6.1 1005 hPa-
28/11/2021 12:595.9 °C76 %2.2 °C-NO35 km/h6.1 1005 hPa-
28/11/2021 12:475.4 °C77 %1.7 °C-N11 km/h5.6 1005 hPa-
28/11/2021 12:445.4 °C77 %1.7 °C2 km/hNNO35 km/h5.6 1005 hPa-
28/11/2021 12:324.9 °C78 %1.7 °C6 km/hONO14 km/h5.0 1005 hPa-
28/11/2021 12:304.9 °C78 %1.1 °C-NNE35 km/h5.0 1005 hPa-
28/11/2021 12:165.1 °C78 %1.7 °C-NO14 km/h5.0 1005 hPa-
28/11/2021 12:145.0 °C78 %1.7 °C6 km/hNO35 km/h5.0 1005 hPa-
28/11/2021 12:014.5 °C79 %1.1 °C-N14 km/h4.4 1005 hPa-
28/11/2021 11:594.4 °C79 %1.1 °C-NO35 km/h4.4 1006 hPa-
28/11/2021 11:474.3 °C80 %1.1 °C-NNO6 km/h4.4 1006 hPa-
28/11/2021 11:454.3 °C80 %1.1 °C-NO35 km/h4.4 1006 hPa-
28/11/2021 11:324.2 °C80 %1.1 °C-NNO10 km/h4.4 1006 hPa-
28/11/2021 11:304.2 °C80 %1.1 °C-NNO35 km/h4.4 1006 hPa-
28/11/2021 11:163.9 °C81 %1.1 °C-NO5 km/h3.9 1006 hPa-
28/11/2021 11:143.9 °C80 %0.6 °C-NO35 km/h3.9 1006 hPa-
28/11/2021 11:013.8 °C81 %0.6 °C-ONO13 km/h3.9 1006 hPa-
28/11/2021 10:593.7 °C82 %1.1 °C-N35 km/h3.9 1006 hPa-
28/11/2021 10:473.2 °C82 %0.6 °C-N13 km/h3.3 1006 hPa-
28/11/2021 10:453.2 °C82 %0.6 °C-NNO35 km/h3.3 1006 hPa-
28/11/2021 10:323.3 °C81 %0.6 °C-NO23 km/h3.3 1005 hPa-
28/11/2021 10:303.3 °C82 %0.6 °C3 km/hONO35 km/h3.3 1005 hPa-
28/11/2021 10:163.1 °C82 %0.6 °C8 km/hNNO13 km/h3.3 1005 hPa-
28/11/2021 10:143.0 °C82 %0.0 °C-NO35 km/h2.8 1005 hPa-
28/11/2021 10:013.1 °C82 %0.6 °C-NO27 km/h2.8 1005 hPa-
28/11/2021 09:593.1 °C82 %0.6 °C11 km/hONO35 km/h2.8 1005 hPa-
28/11/2021 09:472.9 °C81 %0.0 °C-ONO21 km/h2.8 1005 hPa-
28/11/2021 09:452.9 °C81 %0.0 °C-ONO35 km/h2.8 1005 hPa-
28/11/2021 09:322.8 °C81 %0.0 °C-O14 km/h2.8 1005 hPa-
28/11/2021 09:302.8 °C81 %0.0 °C-NO35 km/h2.8 1005 hPa-
28/11/2021 09:162.7 °C81 %0.0 °C-NNO5 km/h2.8 1005 hPa-
28/11/2021 09:142.7 °C81 %0.0 °C-NO35 km/h2.8 1005 hPa-
28/11/2021 09:012.7 °C81 %0.0 °C-NO3 km/h2.8 1005 hPa-
28/11/2021 08:592.8 °C81 %0.0 °C-NNO35 km/h2.8 1005 hPa-
28/11/2021 08:463.0 °C80 %0.0 °C6 km/hN21 km/h2.8 1004 hPa-
28/11/2021 08:453.1 °C80 %0.0 °C-NO35 km/h3.3 1004 hPa-
28/11/2021 08:313.3 °C81 %0.6 °C5 km/hNO11 km/h3.3 1004 hPa-
28/11/2021 08:303.3 °C81 %0.6 °C-NO35 km/h3.3 1004 hPa-
28/11/2021 08:173.4 °C81 %0.6 °C-NNO13 km/h3.3 1004 hPa-
28/11/2021 08:153.4 °C81 %0.6 °C-NNO35 km/h3.3 1004 hPa-
28/11/2021 08:013.6 °C80 %0.6 °C5 km/hNO13 km/h3.3 1004 hPa-
28/11/2021 07:593.6 °C80 %0.6 °C-O35 km/h3.3 1004 hPa-
28/11/2021 07:473.6 °C80 %0.6 °C-NNO18 km/h3.3 1004 hPa-
28/11/2021 07:453.6 °C80 %0.6 °C11 km/hNO35 km/h3.3 1004 hPa-
28/11/2021 07:313.6 °C80 %0.6 °C-NNO18 km/h3.3 1004 hPa-
28/11/2021 07:293.6 °C80 %0.6 °C2 km/hN35 km/h3.3 1004 hPa-
28/11/2021 07:163.6 °C80 %0.6 °C2 km/hNNO13 km/h3.3 1003 hPa-
28/11/2021 07:143.6 °C80 %0.6 °C8 km/hN35 km/h3.3 1003 hPa-
28/11/2021 07:013.6 °C81 %0.6 °C-ONO13 km/h3.3 1003 hPa-
28/11/2021 06:593.6 °C81 %0.6 °C-NO35 km/h3.3 1003 hPa-
28/11/2021 06:473.6 °C81 %0.6 °C-NNO14 km/h3.9 1003 hPa-
28/11/2021 06:453.6 °C81 %0.6 °C-NO35 km/h3.3 1003 hPa-
28/11/2021 06:323.7 °C81 %0.6 °C-ONO3 km/h3.9 1003 hPa-
28/11/2021 06:303.7 °C81 %0.6 °C-NNO35 km/h3.9 1003 hPa-
28/11/2021 06:163.7 °C81 %0.6 °C-NO14 km/h3.9 1003 hPa-
28/11/2021 06:143.7 °C81 %0.6 °C-ONO35 km/h3.9 1003 hPa-
28/11/2021 06:013.6 °C81 %0.6 °C-NNO5 km/h3.9 1003 hPa-
28/11/2021 05:593.6 °C81 %0.6 °C-ONO35 km/h3.3 1003 hPa-
28/11/2021 05:463.5 °C82 %0.6 °C-NNO19 km/h3.3 1003 hPa-
28/11/2021 05:443.4 °C82 %0.6 °C-NNO35 km/h3.3 1003 hPa-
28/11/2021 05:313.4 °C82 %0.6 °C-ONO11 km/h3.3 1003 hPa-
28/11/2021 05:303.4 °C82 %0.6 °C-NO35 km/h3.3 1003 hPa-
28/11/2021 05:163.6 °C82 %0.6 °C-N2 km/h3.3 1003 hPa-
28/11/2021 05:143.5 °C81 %0.6 °C-NO35 km/h3.3 1003 hPa-
28/11/2021 05:013.6 °C81 %0.6 °C-NNO6 km/h3.3 1003 hPa-
28/11/2021 04:593.6 °C81 %0.6 °C-NNO35 km/h3.3 1003 hPa-
28/11/2021 04:463.5 °C82 %0.6 °C-ONO6 km/h3.3 1003 hPa-
28/11/2021 04:443.5 °C82 %0.6 °C-N35 km/h3.3 1003 hPa-
28/11/2021 04:313.6 °C81 %0.6 °C-NNO26 km/h3.3 1003 hPa-
28/11/2021 04:293.6 °C81 %0.6 °C3 km/hNNO35 km/h3.3 1003 hPa-
28/11/2021 04:163.6 °C82 %0.6 °C-N24 km/h3.3 1003 hPa-
28/11/2021 04:153.6 °C82 %0.6 °C-NNO35 km/h3.3 1003 hPa-
28/11/2021 04:023.6 °C81 %0.6 °C-NNO18 km/h3.9 1003 hPa-
28/11/2021 04:003.6 °C81 %0.6 °C2 km/hN35 km/h3.3 1003 hPa-
28/11/2021 03:463.7 °C81 %0.6 °C19 km/hNNE27 km/h3.3 1003 hPa-
28/11/2021 03:443.7 °C81 %0.6 °C-NNO35 km/h3.3 1003 hPa-
28/11/2021 03:313.7 °C81 %0.6 °C-ONO24 km/h3.3 1002 hPa-
28/11/2021 03:293.7 °C81 %0.6 °C-NNE35 km/h3.3 1002 hPa-
28/11/2021 03:173.7 °C81 %0.6 °C-NO29 km/h3.9 1002 hPa-
28/11/2021 03:153.7 °C81 %0.6 °C-NO35 km/h3.9 1002 hPa-
28/11/2021 03:013.8 °C81 %0.6 °C2 km/hOSO32 km/h2.8 1002 hPa-
28/11/2021 03:003.8 °C81 %0.6 °C3 km/hNNO35 km/h2.8 1002 hPa-
28/11/2021 02:463.8 °C81 %1.1 °C-N26 km/h3.9 1002 hPa-
28/11/2021 02:443.8 °C81 %1.1 °C2 km/hNNO35 km/h3.9 1002 hPa-
28/11/2021 02:313.9 °C81 %1.1 °C-NNO26 km/h2.8 1002 hPa-
28/11/2021 02:293.9 °C81 %1.1 °C-NO35 km/h2.8 1002 hPa-
28/11/2021 02:173.9 °C81 %1.1 °C13 km/hONO29 km/h3.9 1002 hPa-
28/11/2021 02:153.9 °C81 %1.1 °C18 km/hN35 km/h3.9 1002 hPa-
28/11/2021 02:014.0 °C81 %1.1 °C-N31 km/h3.9 1002 hPa-
28/11/2021 02:003.9 °C81 %1.1 °C-NNO35 km/h2.8 1002 hPa-
28/11/2021 01:464.0 °C81 %1.1 °C-N32 km/h3.3 1002 hPa-
28/11/2021 01:444.0 °C81 %1.1 °C10 km/hNNO32 km/h3.3 1002 hPa-
28/11/2021 01:314.1 °C81 %1.1 °C2 km/hN26 km/h3.9 1002 hPa-
28/11/2021 01:294.2 °C81 %1.1 °C5 km/hNO32 km/h3.9 1002 hPa-
28/11/2021 01:164.2 °C81 %1.1 °C-ONO27 km/h3.9 1002 hPa-
28/11/2021 01:144.2 °C81 %1.1 °C-NNO27 km/h3.9 1002 hPa-
28/11/2021 01:014.2 °C82 %1.1 °C6 km/hNNO19 km/h4.4 1002 hPa-
28/11/2021 01:004.2 °C82 %1.1 °C-NNO24 km/h4.4 1002 hPa-
28/11/2021 00:474.2 °C82 %1.1 °C-NNO24 km/h4.4 1002 hPa-
28/11/2021 00:454.2 °C82 %1.1 °C-NNE24 km/h4.4 1002 hPa-
28/11/2021 00:314.2 °C83 %1.7 °C-NNO23 km/h4.4 1001 hPa-
28/11/2021 00:304.2 °C83 %1.7 °C-O24 km/h4.4 1001 hPa-
28/11/2021 00:164.3 °C82 %1.7 °C-NO23 km/h4.4 1001 hPa-
28/11/2021 00:144.4 °C82 %1.7 °C2 km/hNNO23 km/h4.4 1001 hPa-
28/11/2021 00:014.4 °C82 %1.7 °C-NNO21 km/h4.4 1001 hPa-


Minima :

Température : 0.6 °C
Humidité : 67 %
Point de rosée : -2.8 °C
Vent moyen : 2 km/h
Windchill : 0.6
Pression atm. : 1001 hPa
Maxima :

Température : 6.2 °C
Humidité : 86 %
Point de rosée : 2.2 °C
Vent moyen : 19 km/h
Windchill : 6.1
Pression atm. : 1007 hPa
Rafales max : 35 km/h
Cumul de pluie sur 24H : 0 mm

Véretz est une commune du département Indre-et-Loire (37).
La station météorologique du réseau de l'association la plus proche de Véretz est celle de Reugny
Site du propriétaire de la station : http://www.meteo-veretz.fr/



Icône Facebook Association Météo Centre Icône Twitter Association Météo Centre Icône Chaîne Youtube Association Météo Centre Icône contact Association Météo Centre Icône Insta Association Météo Centre